PWSweather.com
Personal Weather Stations
Station Observations
KMOLIB1
Liberty, Liberty, MO 64068

LibertyLiberty, MO 64068

Lat: 39.24, Lon: -94.45

Elevation: 866

Station Type:

Latest ConditionsUpdated 11:20:01 AM CST Friday, Feb 22, 2019
Currently Today's Max Today's Min Today's Average
Temperature 33.0°F0.6°C 33.0°F0.6°C 26.0°F-3.3°C 28.3°F-2.1°C
Dew Point 12.4°F-10.9°C 12.4°F-10.9°C 6.0°F-14.4°C 7.9°F-13.4°C
Winds 4.0 mph NNE6.4 kmh NNE 9.0 mph -14.5 kmh - - 3.6 mph 5.8 kmh
Wind Gusts 20.0 mph32.2 kmh 20.0 mph32.2 kmh - -
Humidity 42% 42% 41% 41%
Pressure 210.67 in7134.1 mb 210.73 in7136.1 mb 210.67 in7134.1 mb -
Hour Temp Dew Point Humidity Winds Wind Gusts Pressure Precip Precip Rate Daily Precip Total
11:20 AM 33.0°F0.6°C 12.4°F-10.9°C 42% 4.0 mph NNE6.4 kmh NNE 20.0 mph32.2 kmh 210.67 in7134.1 mb 0.00 in0.0 mm 0.00 in0.0 mm 0.00 in0.0 mm
11:15 AM 32.0°F0.0°C 11.5°F-11.4°C 42% 6.0 mph WNW9.7 kmh WNW 20.0 mph32.2 kmh 210.68 in7134.4 mb 0.00 in0.0 mm 0.00 in0.0 mm 0.00 in0.0 mm
11:10 AM 33.0°F0.6°C 12.4°F-10.9°C 42% 3.0 mph SE4.8 kmh SE 20.0 mph32.2 kmh 210.68 in7134.4 mb 0.00 in0.0 mm 0.00 in0.0 mm 0.00 in0.0 mm
11:05 AM 32.0°F0.0°C 11.5°F-11.4°C 42% 4.0 mph WNW6.4 kmh WNW 20.0 mph32.2 kmh 210.69 in7134.8 mb 0.00 in0.0 mm 0.00 in0.0 mm 0.00 in0.0 mm
11:00 AM 32.0°F0.0°C 11.5°F-11.4°C 42% 3.0 mph SW4.8 kmh SW 20.0 mph32.2 kmh 210.69 in7134.8 mb 0.00 in0.0 mm 0.00 in0.0 mm 0.00 in0.0 mm
10:55 AM 32.0°F0.0°C 11.5°F-11.4°C 42% 6.0 mph ESE9.7 kmh ESE 20.0 mph32.2 kmh 210.70 in7135.1 mb 0.00 in0.0 mm 0.00 in0.0 mm 0.00 in0.0 mm
10:50 AM 32.0°F0.0°C 11.5°F-11.4°C 42% 5.0 mph SSE8.0 kmh SSE 20.0 mph32.2 kmh 210.70 in7135.1 mb 0.00 in0.0 mm 0.00 in0.0 mm 0.00 in0.0 mm
10:45 AM 32.0°F0.0°C 11.5°F-11.4°C 42% 3.0 mph WNW4.8 kmh WNW 20.0 mph32.2 kmh 210.69 in7134.8 mb 0.00 in0.0 mm 0.00 in0.0 mm 0.00 in0.0 mm
10:40 AM 32.0°F0.0°C 11.5°F-11.4°C 42% 2.0 mph SSW3.2 kmh SSW 20.0 mph32.2 kmh 210.69 in7134.8 mb 0.00 in0.0 mm 0.00 in0.0 mm 0.00 in0.0 mm
10:35 AM 32.0°F0.0°C 11.5°F-11.4°C 42% 2.0 mph SSW3.2 kmh SSW 20.0 mph32.2 kmh 210.69 in7134.8 mb 0.00 in0.0 mm 0.00 in0.0 mm 0.00 in0.0 mm
10:25 AM 31.0°F-0.6°C 10.6°F-11.9°C 42% 2.0 mph NE3.2 kmh NE 20.0 mph32.2 kmh 210.70 in7135.1 mb 0.00 in0.0 mm 0.00 in0.0 mm 0.00 in0.0 mm
10:20 AM 31.0°F-0.6°C 10.6°F-11.9°C 42% 1.0 mph W1.6 kmh W 20.0 mph32.2 kmh 210.70 in7135.1 mb 0.00 in0.0 mm 0.00 in0.0 mm 0.00 in0.0 mm
10:15 AM 31.0°F-0.6°C 10.6°F-11.9°C 42% 3.0 mph E4.8 kmh E 20.0 mph32.2 kmh 210.71 in7135.5 mb 0.00 in0.0 mm 0.00 in0.0 mm 0.00 in0.0 mm
10:10 AM 31.0°F-0.6°C 10.6°F-11.9°C 42% 8.0 mph ESE12.9 kmh ESE 20.0 mph32.2 kmh 210.71 in7135.5 mb 0.00 in0.0 mm 0.00 in0.0 mm 0.00 in0.0 mm
10:05 AM 31.0°F-0.6°C 10.6°F-11.9°C 42% 4.0 mph NW6.4 kmh NW 20.0 mph32.2 kmh 210.71 in7135.5 mb 0.00 in0.0 mm 0.00 in0.0 mm 0.00 in0.0 mm
10:00 AM 31.0°F-0.6°C 10.6°F-11.9°C 42% 6.0 mph SSW9.7 kmh SSW 20.0 mph32.2 kmh 210.71 in7135.5 mb 0.00 in0.0 mm 0.00 in0.0 mm 0.00 in0.0 mm
09:55 AM 30.0°F-1.1°C 9.1°F-12.7°C 41% 2.0 mph S3.2 kmh S 20.0 mph32.2 kmh 210.71 in7135.5 mb 0.00 in0.0 mm 0.00 in0.0 mm 0.00 in0.0 mm
09:50 AM 30.0°F-1.1°C 9.7°F-12.4°C 42% 4.0 mph SSW6.4 kmh SSW 20.0 mph32.2 kmh 210.71 in7135.5 mb 0.00 in0.0 mm 0.00 in0.0 mm 0.00 in0.0 mm
09:45 AM 30.0°F-1.1°C 9.7°F-12.4°C 42% 4.0 mph ENE6.4 kmh ENE 20.0 mph32.2 kmh 210.71 in7135.5 mb 0.00 in0.0 mm 0.00 in0.0 mm 0.00 in0.0 mm
09:40 AM 30.0°F-1.1°C 9.7°F-12.4°C 42% 3.0 mph NE4.8 kmh NE 20.0 mph32.2 kmh 210.71 in7135.5 mb 0.00 in0.0 mm 0.00 in0.0 mm 0.00 in0.0 mm
09:35 AM 30.0°F-1.1°C 9.7°F-12.4°C 42% 7.0 mph E11.3 kmh E 20.0 mph32.2 kmh 210.73 in7136.1 mb 0.00 in0.0 mm 0.00 in0.0 mm 0.00 in0.0 mm
09:30 AM 30.0°F-1.1°C 9.7°F-12.4°C 42% 2.0 mph ENE3.2 kmh ENE 20.0 mph32.2 kmh 210.73 in7136.1 mb 0.00 in0.0 mm 0.00 in0.0 mm 0.00 in0.0 mm
09:25 AM 30.0°F-1.1°C 9.7°F-12.4°C 42% Calm Calm 20.0 mph32.2 kmh 210.73 in7136.1 mb 0.00 in0.0 mm 0.00 in0.0 mm 0.00 in0.0 mm
09:20 AM 30.0°F-1.1°C 9.7°F-12.4°C 42% 5.0 mph SW8.0 kmh SW 20.0 mph32.2 kmh 210.73 in7136.1 mb 0.00 in0.0 mm 0.00 in0.0 mm 0.00 in0.0 mm
09:15 AM 30.0°F-1.1°C 9.7°F-12.4°C 42% 7.0 mph ESE11.3 kmh ESE 20.0 mph32.2 kmh 210.73 in7136.1 mb 0.00 in0.0 mm 0.00 in0.0 mm 0.00 in0.0 mm
09:10 AM 30.0°F-1.1°C 9.7°F-12.4°C 42% 7.0 mph W11.3 kmh W 20.0 mph32.2 kmh 210.73 in7136.1 mb 0.00 in0.0 mm 0.00 in0.0 mm 0.00 in0.0 mm
09:05 AM 30.0°F-1.1°C 9.7°F-12.4°C 42% 7.0 mph E11.3 kmh E 20.0 mph32.2 kmh 210.73 in7136.1 mb 0.00 in0.0 mm 0.00 in0.0 mm 0.00 in0.0 mm
09:00 AM 30.0°F-1.1°C 9.7°F-12.4°C 42% 6.0 mph NE9.7 kmh NE 17.0 mph27.4 kmh 210.73 in7136.1 mb 0.00 in0.0 mm 0.00 in0.0 mm 0.00 in0.0 mm
08:55 AM 30.0°F-1.1°C 9.7°F-12.4°C 42% 2.0 mph SW3.2 kmh SW 17.0 mph27.4 kmh 210.73 in7136.1 mb 0.00 in0.0 mm 0.00 in0.0 mm 0.00 in0.0 mm
08:50 AM 30.0°F-1.1°C 9.7°F-12.4°C 42% 1.0 mph E1.6 kmh E 17.0 mph27.4 kmh 210.73 in7136.1 mb 0.00 in0.0 mm 0.00 in0.0 mm 0.00 in0.0 mm
08:45 AM 30.0°F-1.1°C 9.7°F-12.4°C 42% 7.0 mph NE11.3 kmh NE 17.0 mph27.4 kmh 210.73 in7136.1 mb 0.00 in0.0 mm 0.00 in0.0 mm 0.00 in0.0 mm
08:40 AM 30.0°F-1.1°C 9.7°F-12.4°C 42% 4.0 mph E6.4 kmh E 17.0 mph27.4 kmh 210.73 in7136.1 mb 0.00 in0.0 mm 0.00 in0.0 mm 0.00 in0.0 mm
08:35 AM 30.0°F-1.1°C 9.7°F-12.4°C 42% 4.0 mph SSW6.4 kmh SSW 17.0 mph27.4 kmh 210.73 in7136.1 mb 0.00 in0.0 mm 0.00 in0.0 mm 0.00 in0.0 mm
08:30 AM 29.0°F-1.7°C 8.2°F-13.2°C 41% 8.0 mph E12.9 kmh E 17.0 mph27.4 kmh 210.73 in7136.1 mb 0.00 in0.0 mm 0.00 in0.0 mm 0.00 in0.0 mm
08:25 AM 29.0°F-1.7°C 8.2°F-13.2°C 41% 6.0 mph E9.7 kmh E 17.0 mph27.4 kmh 210.72 in7135.8 mb 0.00 in0.0 mm 0.00 in0.0 mm 0.00 in0.0 mm
08:20 AM 29.0°F-1.7°C 8.2°F-13.2°C 41% 1.0 mph E1.6 kmh E 17.0 mph27.4 kmh 210.72 in7135.8 mb 0.00 in0.0 mm 0.00 in0.0 mm 0.00 in0.0 mm
08:15 AM 29.0°F-1.7°C 8.2°F-13.2°C 41% 5.0 mph W8.0 kmh W 17.0 mph27.4 kmh 210.71 in7135.5 mb 0.00 in0.0 mm 0.00 in0.0 mm 0.00 in0.0 mm
08:10 AM 29.0°F-1.7°C 8.2°F-13.2°C 41% 3.0 mph WSW4.8 kmh WSW 17.0 mph27.4 kmh 210.71 in7135.5 mb 0.00 in0.0 mm 0.00 in0.0 mm 0.00 in0.0 mm
08:05 AM 29.0°F-1.7°C 8.2°F-13.2°C 41% 4.0 mph WNW6.4 kmh WNW 16.0 mph25.7 kmh 210.70 in7135.1 mb 0.00 in0.0 mm 0.00 in0.0 mm 0.00 in0.0 mm
08:00 AM 28.0°F-2.2°C 7.3°F-13.7°C 41% 6.0 mph N9.7 kmh N 16.0 mph25.7 kmh 210.70 in7135.1 mb 0.00 in0.0 mm 0.00 in0.0 mm 0.00 in0.0 mm
07:55 AM 28.0°F-2.2°C 7.3°F-13.7°C 41% 6.0 mph S9.7 kmh S 16.0 mph25.7 kmh 210.70 in7135.1 mb 0.00 in0.0 mm 0.00 in0.0 mm 0.00 in0.0 mm
07:50 AM 28.0°F-2.2°C 7.3°F-13.7°C 41% 2.0 mph SSW3.2 kmh SSW 16.0 mph25.7 kmh 210.70 in7135.1 mb 0.00 in0.0 mm 0.00 in0.0 mm 0.00 in0.0 mm
07:45 AM 27.0°F-2.8°C 6.4°F-14.2°C 41% 3.0 mph N4.8 kmh N 16.0 mph25.7 kmh 210.70 in7135.1 mb 0.00 in0.0 mm 0.00 in0.0 mm 0.00 in0.0 mm
07:40 AM 27.0°F-2.8°C 6.4°F-14.2°C 41% 3.0 mph NW4.8 kmh NW 16.0 mph25.7 kmh 210.70 in7135.1 mb 0.00 in0.0 mm 0.00 in0.0 mm 0.00 in0.0 mm
07:35 AM 27.0°F-2.8°C 6.4°F-14.2°C 41% 3.0 mph SSW4.8 kmh SSW 16.0 mph25.7 kmh 210.70 in7135.1 mb 0.00 in0.0 mm 0.00 in0.0 mm 0.00 in0.0 mm
07:30 AM 27.0°F-2.8°C 6.4°F-14.2°C 41% 2.0 mph SW3.2 kmh SW 16.0 mph25.7 kmh 210.70 in7135.1 mb 0.00 in0.0 mm 0.00 in0.0 mm 0.00 in0.0 mm
07:25 AM 27.0°F-2.8°C 6.4°F-14.2°C 41% 1.0 mph E1.6 kmh E 16.0 mph25.7 kmh 210.71 in7135.5 mb 0.00 in0.0 mm 0.00 in0.0 mm 0.00 in0.0 mm
07:20 AM 27.0°F-2.8°C 6.4°F-14.2°C 41% 3.0 mph E4.8 kmh E 16.0 mph25.7 kmh 210.71 in7135.5 mb 0.00 in0.0 mm 0.00 in0.0 mm 0.00 in0.0 mm
07:15 AM 27.0°F-2.8°C 6.4°F-14.2°C 41% 6.0 mph SE9.7 kmh SE 16.0 mph25.7 kmh 210.70 in7135.1 mb 0.00 in0.0 mm 0.00 in0.0 mm 0.00 in0.0 mm
07:10 AM 27.0°F-2.8°C 6.4°F-14.2°C 41% 3.0 mph WNW4.8 kmh WNW 16.0 mph25.7 kmh 210.70 in7135.1 mb 0.00 in0.0 mm 0.00 in0.0 mm 0.00 in0.0 mm
07:05 AM 27.0°F-2.8°C 6.4°F-14.2°C 41% 3.0 mph NNW4.8 kmh NNW 16.0 mph25.7 kmh 210.71 in7135.5 mb 0.00 in0.0 mm 0.00 in0.0 mm 0.00 in0.0 mm
07:00 AM 27.0°F-2.8°C 6.4°F-14.2°C 41% 3.0 mph SW4.8 kmh SW 16.0 mph25.7 kmh 210.71 in7135.5 mb 0.00 in0.0 mm 0.00 in0.0 mm 0.00 in0.0 mm
06:55 AM 27.0°F-2.8°C 6.4°F-14.2°C 41% 2.0 mph SSW3.2 kmh SSW 16.0 mph25.7 kmh 210.71 in7135.5 mb 0.00 in0.0 mm 0.00 in0.0 mm 0.00 in0.0 mm
06:50 AM 27.0°F-2.8°C 6.4°F-14.2°C 41% 3.0 mph SE4.8 kmh SE 16.0 mph25.7 kmh 210.71 in7135.5 mb 0.00 in0.0 mm 0.00 in0.0 mm 0.00 in0.0 mm
06:45 AM 27.0°F-2.8°C 6.4°F-14.2°C 41% 1.0 mph ENE1.6 kmh ENE 16.0 mph25.7 kmh 210.70 in7135.1 mb 0.00 in0.0 mm 0.00 in0.0 mm 0.00 in0.0 mm
06:40 AM 27.0°F-2.8°C 6.4°F-14.2°C 41% 3.0 mph SSE4.8 kmh SSE 16.0 mph25.7 kmh 210.70 in7135.1 mb 0.00 in0.0 mm 0.00 in0.0 mm 0.00 in0.0 mm
06:35 AM 27.0°F-2.8°C 6.4°F-14.2°C 41% 2.0 mph NE3.2 kmh NE 16.0 mph25.7 kmh 210.70 in7135.1 mb 0.00 in0.0 mm 0.00 in0.0 mm 0.00 in0.0 mm
06:30 AM 27.0°F-2.8°C 6.4°F-14.2°C 41% 9.0 mph ENE14.5 kmh ENE 16.0 mph25.7 kmh 210.70 in7135.1 mb 0.00 in0.0 mm 0.00 in0.0 mm 0.00 in0.0 mm
06:25 AM 27.0°F-2.8°C 6.4°F-14.2°C 41% 1.0 mph SW1.6 kmh SW 16.0 mph25.7 kmh 210.71 in7135.5 mb 0.00 in0.0 mm 0.00 in0.0 mm 0.00 in0.0 mm
06:20 AM 27.0°F-2.8°C 6.4°F-14.2°C 41% 3.0 mph E4.8 kmh E 16.0 mph25.7 kmh 210.71 in7135.5 mb 0.00 in0.0 mm 0.00 in0.0 mm 0.00 in0.0 mm
06:15 AM 27.0°F-2.8°C 6.4°F-14.2°C 41% 2.0 mph NW3.2 kmh NW 16.0 mph25.7 kmh 210.70 in7135.1 mb 0.00 in0.0 mm 0.00 in0.0 mm 0.00 in0.0 mm
06:10 AM 28.0°F-2.2°C 7.3°F-13.7°C 41% 3.0 mph W4.8 kmh W 16.0 mph25.7 kmh 210.70 in7135.1 mb 0.00 in0.0 mm 0.00 in0.0 mm 0.00 in0.0 mm
06:05 AM 28.0°F-2.2°C 7.3°F-13.7°C 41% 8.0 mph NE12.9 kmh NE 16.0 mph25.7 kmh 210.71 in7135.5 mb 0.00 in0.0 mm 0.00 in0.0 mm 0.00 in0.0 mm
06:00 AM 28.0°F-2.2°C 7.3°F-13.7°C 41% Calm Calm 16.0 mph25.7 kmh 210.71 in7135.5 mb 0.00 in0.0 mm 0.00 in0.0 mm 0.00 in0.0 mm
05:55 AM 28.0°F-2.2°C 7.3°F-13.7°C 41% 2.0 mph SE3.2 kmh SE 16.0 mph25.7 kmh 210.70 in7135.1 mb 0.00 in0.0 mm 0.00 in0.0 mm 0.00 in0.0 mm
05:50 AM 28.0°F-2.2°C 7.3°F-13.7°C 41% 6.0 mph W9.7 kmh W 16.0 mph25.7 kmh 210.70 in7135.1 mb 0.00 in0.0 mm 0.00 in0.0 mm 0.00 in0.0 mm
05:45 AM 28.0°F-2.2°C 7.3°F-13.7°C 41% 3.0 mph ESE4.8 kmh ESE 16.0 mph25.7 kmh 210.71 in7135.5 mb 0.00 in0.0 mm 0.00 in0.0 mm 0.00 in0.0 mm
05:40 AM 28.0°F-2.2°C 7.3°F-13.7°C 41% 6.0 mph E9.7 kmh E 16.0 mph25.7 kmh 210.71 in7135.5 mb 0.00 in0.0 mm 0.00 in0.0 mm 0.00 in0.0 mm
05:35 AM 28.0°F-2.2°C 7.3°F-13.7°C 41% 4.0 mph W6.4 kmh W 16.0 mph25.7 kmh 210.69 in7134.8 mb 0.00 in0.0 mm 0.00 in0.0 mm 0.00 in0.0 mm
05:30 AM 28.0°F-2.2°C 7.3°F-13.7°C 41% 4.0 mph SE6.4 kmh SE 16.0 mph25.7 kmh 210.69 in7134.8 mb 0.00 in0.0 mm 0.00 in0.0 mm 0.00 in0.0 mm
05:25 AM 28.0°F-2.2°C 7.3°F-13.7°C 41% 4.0 mph W6.4 kmh W 16.0 mph25.7 kmh 210.69 in7134.8 mb 0.00 in0.0 mm 0.00 in0.0 mm 0.00 in0.0 mm
05:20 AM 28.0°F-2.2°C 7.3°F-13.7°C 41% 2.0 mph NW3.2 kmh NW 16.0 mph25.7 kmh 210.69 in7134.8 mb 0.00 in0.0 mm 0.00 in0.0 mm 0.00 in0.0 mm
05:15 AM 28.0°F-2.2°C 7.3°F-13.7°C 41% 7.0 mph W11.3 kmh W 16.0 mph25.7 kmh 210.69 in7134.8 mb 0.00 in0.0 mm 0.00 in0.0 mm 0.00 in0.0 mm
05:10 AM 28.0°F-2.2°C 7.3°F-13.7°C 41% 1.0 mph WSW1.6 kmh WSW 16.0 mph25.7 kmh 210.69 in7134.8 mb 0.00 in0.0 mm 0.00 in0.0 mm 0.00 in0.0 mm
05:05 AM 27.0°F-2.8°C 6.4°F-14.2°C 41% 3.0 mph ENE4.8 kmh ENE 16.0 mph25.7 kmh 210.70 in7135.1 mb 0.00 in0.0 mm 0.00 in0.0 mm 0.00 in0.0 mm
05:00 AM 27.0°F-2.8°C 6.4°F-14.2°C 41% 3.0 mph NNE4.8 kmh NNE 16.0 mph25.7 kmh 210.70 in7135.1 mb 0.00 in0.0 mm 0.00 in0.0 mm 0.00 in0.0 mm
04:55 AM 27.0°F-2.8°C 6.4°F-14.2°C 41% 2.0 mph SSW3.2 kmh SSW 16.0 mph25.7 kmh 210.71 in7135.5 mb 0.00 in0.0 mm 0.00 in0.0 mm 0.00 in0.0 mm
04:50 AM 27.0°F-2.8°C 6.4°F-14.2°C 41% 3.0 mph ENE4.8 kmh ENE 16.0 mph25.7 kmh 210.71 in7135.5 mb 0.00 in0.0 mm 0.00 in0.0 mm 0.00 in0.0 mm
04:45 AM 27.0°F-2.8°C 6.4°F-14.2°C 41% 6.0 mph ENE9.7 kmh ENE 16.0 mph25.7 kmh 210.71 in7135.5 mb 0.00 in0.0 mm 0.00 in0.0 mm 0.00 in0.0 mm
04:40 AM 27.0°F-2.8°C 6.4°F-14.2°C 41% 3.0 mph WSW4.8 kmh WSW 16.0 mph25.7 kmh 210.71 in7135.5 mb 0.00 in0.0 mm 0.00 in0.0 mm 0.00 in0.0 mm
04:35 AM 26.0°F-3.3°C 6.0°F-14.4°C 42% 1.0 mph E1.6 kmh E 16.0 mph25.7 kmh 210.71 in7135.5 mb 0.00 in0.0 mm 0.00 in0.0 mm 0.00 in0.0 mm
04:30 AM 26.0°F-3.3°C 6.0°F-14.4°C 42% 1.0 mph SW1.6 kmh SW 16.0 mph25.7 kmh 210.71 in7135.5 mb 0.00 in0.0 mm 0.00 in0.0 mm 0.00 in0.0 mm
04:25 AM 26.0°F-3.3°C 6.0°F-14.4°C 42% 5.0 mph NNW8.0 kmh NNW 16.0 mph25.7 kmh 210.70 in7135.1 mb 0.00 in0.0 mm 0.00 in0.0 mm 0.00 in0.0 mm
04:20 AM 26.0°F-3.3°C 6.0°F-14.4°C 42% 2.0 mph WSW3.2 kmh WSW 16.0 mph25.7 kmh 210.70 in7135.1 mb 0.00 in0.0 mm 0.00 in0.0 mm 0.00 in0.0 mm
04:15 AM 26.0°F-3.3°C 6.0°F-14.4°C 42% 5.0 mph NW8.0 kmh NW 16.0 mph25.7 kmh 210.70 in7135.1 mb 0.00 in0.0 mm 0.00 in0.0 mm 0.00 in0.0 mm
04:10 AM 26.0°F-3.3°C 6.0°F-14.4°C 42% 3.0 mph ENE4.8 kmh ENE 16.0 mph25.7 kmh 210.70 in7135.1 mb 0.00 in0.0 mm 0.00 in0.0 mm 0.00 in0.0 mm
04:05 AM 26.0°F-3.3°C 6.0°F-14.4°C 42% 5.0 mph NW8.0 kmh NW 16.0 mph25.7 kmh 210.71 in7135.5 mb 0.00 in0.0 mm 0.00 in0.0 mm 0.00 in0.0 mm
04:00 AM 26.0°F-3.3°C 6.0°F-14.4°C 42% Calm Calm 16.0 mph25.7 kmh 210.71 in7135.5 mb 0.00 in0.0 mm 0.00 in0.0 mm 0.00 in0.0 mm
03:55 AM 26.0°F-3.3°C 6.0°F-14.4°C 42% 3.0 mph NE4.8 kmh NE 16.0 mph25.7 kmh 210.70 in7135.1 mb 0.00 in0.0 mm 0.00 in0.0 mm 0.00 in0.0 mm
03:50 AM 26.0°F-3.3°C 6.0°F-14.4°C 42% 4.0 mph E6.4 kmh E 16.0 mph25.7 kmh 210.70 in7135.1 mb 0.00 in0.0 mm 0.00 in0.0 mm 0.00 in0.0 mm
03:45 AM 26.0°F-3.3°C 6.0°F-14.4°C 42% 2.0 mph ENE3.2 kmh ENE 16.0 mph25.7 kmh 210.71 in7135.5 mb 0.00 in0.0 mm 0.00 in0.0 mm 0.00 in0.0 mm
03:40 AM 26.0°F-3.3°C 6.0°F-14.4°C 42% 5.0 mph ENE8.0 kmh ENE 13.0 mph20.9 kmh 210.71 in7135.5 mb 0.00 in0.0 mm 0.00 in0.0 mm 0.00 in0.0 mm
03:35 AM 26.0°F-3.3°C 6.0°F-14.4°C 42% 3.0 mph E4.8 kmh E 13.0 mph20.9 kmh 210.71 in7135.5 mb 0.00 in0.0 mm 0.00 in0.0 mm 0.00 in0.0 mm
03:30 AM 26.0°F-3.3°C 6.0°F-14.4°C 42% 1.0 mph E1.6 kmh E 13.0 mph20.9 kmh 210.71 in7135.5 mb 0.00 in0.0 mm 0.00 in0.0 mm 0.00 in0.0 mm
03:25 AM 26.0°F-3.3°C 6.0°F-14.4°C 42% 2.0 mph NE3.2 kmh NE 13.0 mph20.9 kmh 210.71 in7135.5 mb 0.00 in0.0 mm 0.00 in0.0 mm 0.00 in0.0 mm
03:20 AM 26.0°F-3.3°C 6.0°F-14.4°C 42% 1.0 mph ENE1.6 kmh ENE 13.0 mph20.9 kmh 210.71 in7135.5 mb 0.00 in0.0 mm 0.00 in0.0 mm 0.00 in0.0 mm
03:15 AM 26.0°F-3.3°C 6.0°F-14.4°C 42% 4.0 mph SW6.4 kmh SW 13.0 mph20.9 kmh 210.72 in7135.8 mb 0.00 in0.0 mm 0.00 in0.0 mm 0.00 in0.0 mm
03:10 AM 26.0°F-3.3°C 6.0°F-14.4°C 42% 3.0 mph W4.8 kmh W 13.0 mph20.9 kmh 210.72 in7135.8 mb 0.00 in0.0 mm 0.00 in0.0 mm 0.00 in0.0 mm
03:05 AM 26.0°F-3.3°C 6.0°F-14.4°C 42% 5.0 mph ENE8.0 kmh ENE 13.0 mph20.9 kmh 210.72 in7135.8 mb 0.00 in0.0 mm 0.00 in0.0 mm 0.00 in0.0 mm
03:00 AM 26.0°F-3.3°C 6.0°F-14.4°C 42% 3.0 mph NNW4.8 kmh NNW 13.0 mph20.9 kmh 210.72 in7135.8 mb 0.00 in0.0 mm 0.00 in0.0 mm 0.00 in0.0 mm
02:55 AM 26.0°F-3.3°C 6.0°F-14.4°C 42% 7.0 mph ENE11.3 kmh ENE 13.0 mph20.9 kmh 210.72 in7135.8 mb 0.00 in0.0 mm 0.00 in0.0 mm 0.00 in0.0 mm
02:50 AM 26.0°F-3.3°C 6.0°F-14.4°C 42% 2.0 mph NE3.2 kmh NE 13.0 mph20.9 kmh 210.72 in7135.8 mb 0.00 in0.0 mm 0.00 in0.0 mm 0.00 in0.0 mm
02:45 AM 26.0°F-3.3°C 6.0°F-14.4°C 42% 2.0 mph E3.2 kmh E 13.0 mph20.9 kmh 210.73 in7136.1 mb 0.00 in0.0 mm 0.00 in0.0 mm 0.00 in0.0 mm
02:40 AM 26.0°F-3.3°C 6.0°F-14.4°C 42% 7.0 mph NE11.3 kmh NE 13.0 mph20.9 kmh 210.73 in7136.1 mb 0.00 in0.0 mm 0.00 in0.0 mm 0.00 in0.0 mm
02:35 AM 27.0°F-2.8°C 6.4°F-14.2°C 41% 7.0 mph E11.3 kmh E 13.0 mph20.9 kmh 210.73 in7136.1 mb 0.00 in0.0 mm 0.00 in0.0 mm 0.00 in0.0 mm
02:30 AM 27.0°F-2.8°C 6.4°F-14.2°C 41% 9.0 mph ENE14.5 kmh ENE 13.0 mph20.9 kmh 210.73 in7136.1 mb 0.00 in0.0 mm 0.00 in0.0 mm 0.00 in0.0 mm
02:25 AM 27.0°F-2.8°C 6.4°F-14.2°C 41% Calm Calm 13.0 mph20.9 kmh 210.72 in7135.8 mb 0.00 in0.0 mm 0.00 in0.0 mm 0.00 in0.0 mm
02:20 AM 28.0°F-2.2°C 7.3°F-13.7°C 41% 6.0 mph NE9.7 kmh NE 13.0 mph20.9 kmh 210.72 in7135.8 mb 0.00 in0.0 mm 0.00 in0.0 mm 0.00 in0.0 mm
02:15 AM 28.0°F-2.2°C 7.3°F-13.7°C 41% 4.0 mph NW6.4 kmh NW 13.0 mph20.9 kmh 210.71 in7135.5 mb 0.00 in0.0 mm 0.00 in0.0 mm 0.00 in0.0 mm
02:10 AM 28.0°F-2.2°C 7.3°F-13.7°C 41% 8.0 mph NE12.9 kmh NE 13.0 mph20.9 kmh 210.71 in7135.5 mb 0.00 in0.0 mm 0.00 in0.0 mm 0.00 in0.0 mm
02:05 AM 28.0°F-2.2°C 7.3°F-13.7°C 41% 3.0 mph E4.8 kmh E 13.0 mph20.9 kmh 210.71 in7135.5 mb 0.00 in0.0 mm 0.00 in0.0 mm 0.00 in0.0 mm
02:00 AM 28.0°F-2.2°C 7.3°F-13.7°C 41% 2.0 mph SSE3.2 kmh SSE 13.0 mph20.9 kmh 210.71 in7135.5 mb 0.00 in0.0 mm 0.00 in0.0 mm 0.00 in0.0 mm
01:55 AM 28.0°F-2.2°C 7.3°F-13.7°C 41% Calm Calm 13.0 mph20.9 kmh 210.71 in7135.5 mb 0.00 in0.0 mm 0.00 in0.0 mm 0.00 in0.0 mm
01:50 AM 28.0°F-2.2°C 7.3°F-13.7°C 41% 4.0 mph W6.4 kmh W 13.0 mph20.9 kmh 210.71 in7135.5 mb 0.00 in0.0 mm 0.00 in0.0 mm 0.00 in0.0 mm
01:45 AM 28.0°F-2.2°C 7.3°F-13.7°C 41% 3.0 mph NE4.8 kmh NE 13.0 mph20.9 kmh 210.71 in7135.5 mb 0.00 in0.0 mm 0.00 in0.0 mm 0.00 in0.0 mm
01:40 AM 28.0°F-2.2°C 7.3°F-13.7°C 41% Calm Calm 13.0 mph20.9 kmh 210.71 in7135.5 mb 0.00 in0.0 mm 0.00 in0.0 mm 0.00 in0.0 mm
01:35 AM 28.0°F-2.2°C 7.3°F-13.7°C 41% 1.0 mph WNW1.6 kmh WNW 13.0 mph20.9 kmh 210.71 in7135.5 mb 0.00 in0.0 mm 0.00 in0.0 mm 0.00 in0.0 mm
01:30 AM 28.0°F-2.2°C 7.3°F-13.7°C 41% 1.0 mph NW1.6 kmh NW 13.0 mph20.9 kmh 210.71 in7135.5 mb 0.00 in0.0 mm 0.00 in0.0 mm 0.00 in0.0 mm
01:25 AM 28.0°F-2.2°C 7.3°F-13.7°C 41% 4.0 mph E6.4 kmh E 13.0 mph20.9 kmh 210.71 in7135.5 mb 0.00 in0.0 mm 0.00 in0.0 mm 0.00 in0.0 mm
01:20 AM 28.0°F-2.2°C 7.3°F-13.7°C 41% 6.0 mph ENE9.7 kmh ENE 13.0 mph20.9 kmh 210.71 in7135.5 mb 0.00 in0.0 mm 0.00 in0.0 mm 0.00 in0.0 mm
01:15 AM 29.0°F-1.7°C 8.2°F-13.2°C 41% 3.0 mph NE4.8 kmh NE 13.0 mph20.9 kmh 210.70 in7135.1 mb 0.00 in0.0 mm 0.00 in0.0 mm 0.00 in0.0 mm
01:10 AM 29.0°F-1.7°C 8.2°F-13.2°C 41% 5.0 mph N8.0 kmh N 13.0 mph20.9 kmh 210.70 in7135.1 mb 0.00 in0.0 mm 0.00 in0.0 mm 0.00 in0.0 mm
01:05 AM 29.0°F-1.7°C 8.2°F-13.2°C 41% Calm Calm 13.0 mph20.9 kmh 210.71 in7135.5 mb 0.00 in0.0 mm 0.00 in0.0 mm 0.00 in0.0 mm
01:00 AM 29.0°F-1.7°C 8.2°F-13.2°C 41% 1.0 mph SSE1.6 kmh SSE 13.0 mph20.9 kmh 210.71 in7135.5 mb 0.00 in0.0 mm 0.00 in0.0 mm 0.00 in0.0 mm
12:55 AM 29.0°F-1.7°C 8.2°F-13.2°C 41% 9.0 mph ENE14.5 kmh ENE 13.0 mph20.9 kmh 210.71 in7135.5 mb 0.00 in0.0 mm 0.00 in0.0 mm 0.00 in0.0 mm
12:50 AM 29.0°F-1.7°C 8.2°F-13.2°C 41% 1.0 mph N1.6 kmh N 13.0 mph20.9 kmh 210.71 in7135.5 mb 0.00 in0.0 mm 0.00 in0.0 mm 0.00 in0.0 mm
12:45 AM 29.0°F-1.7°C 8.2°F-13.2°C 41% Calm Calm 13.0 mph20.9 kmh 210.70 in7135.1 mb 0.00 in0.0 mm 0.00 in0.0 mm 0.00 in0.0 mm
12:40 AM 29.0°F-1.7°C 8.2°F-13.2°C 41% 3.0 mph ENE4.8 kmh ENE 13.0 mph20.9 kmh 210.70 in7135.1 mb 0.00 in0.0 mm 0.00 in0.0 mm 0.00 in0.0 mm
12:35 AM 29.0°F-1.7°C 8.2°F-13.2°C 41% 2.0 mph E3.2 kmh E 13.0 mph20.9 kmh 210.69 in7134.8 mb 0.00 in0.0 mm 0.00 in0.0 mm 0.00 in0.0 mm
12:30 AM 30.0°F-1.1°C 9.7°F-12.4°C 42% 6.0 mph NE9.7 kmh NE 13.0 mph20.9 kmh 210.69 in7134.8 mb 0.00 in0.0 mm 0.00 in0.0 mm 0.00 in0.0 mm
12:25 AM 30.0°F-1.1°C 9.7°F-12.4°C 42% 8.0 mph E12.9 kmh E 13.0 mph20.9 kmh 210.69 in7134.8 mb 0.00 in0.0 mm 0.00 in0.0 mm 0.00 in0.0 mm
12:20 AM 30.0°F-1.1°C 9.7°F-12.4°C 42% 3.0 mph NE4.8 kmh NE 13.0 mph20.9 kmh 210.69 in7134.8 mb 0.00 in0.0 mm 0.00 in0.0 mm 0.00 in0.0 mm
12:15 AM 30.0°F-1.1°C 9.7°F-12.4°C 42% 6.0 mph NE9.7 kmh NE 13.0 mph20.9 kmh 210.69 in7134.8 mb 0.00 in0.0 mm 0.00 in0.0 mm 0.00 in0.0 mm
12:10 AM 30.0°F-1.1°C 9.7°F-12.4°C 42% 4.0 mph ESE6.4 kmh ESE 11.0 mph17.7 kmh 210.69 in7134.8 mb 0.00 in0.0 mm 0.00 in0.0 mm 0.00 in0.0 mm
12:05 AM 30.0°F-1.1°C 9.7°F-12.4°C 42% 3.0 mph WNW4.8 kmh WNW 11.0 mph17.7 kmh 210.69 in7134.8 mb 0.00 in0.0 mm 0.00 in0.0 mm 0.00 in0.0 mm
12:00 AM 30.0°F-1.1°C 9.7°F-12.4°C 42% 4.0 mph WSW6.4 kmh WSW 4.0 mph6.4 kmh 210.69 in7134.8 mb 0.00 in0.0 mm 0.00 in0.0 mm 0.00 in0.0 mm